Time;durP1;ratioP1;P1;durP2;ratioP2;P2;SDS_P1;SDS_P2;PMS_P1;PMS_P2;Temp;Humidity;BMP_temperature;BMP_pressure;BME280_temperature;BME280_humidity;BME280_pressure;Samples;Min_cycle;Max_cycle;Signal;HPM_P1;HPM_P2
2023/10/26 00:00:27;;;;;;;14.88;12.15;;;10.20;99.90;;;;;;5102998;28;20055;-70
2023/10/26 00:02:53;;;;;;;18.05;13.30;;;10.30;99.90;;;;;;5105295;27;20541;-70
2023/10/26 00:05:18;;;;;;;19.13;13.10;;;10.20;99.90;;;;;;5103081;27;20612;-70
2023/10/26 00:07:44;;;;;;;16.02;13.75;;;10.30;99.90;;;;;;5105210;27;20051;-70
2023/10/26 00:10:10;;;;;;;19.48;14.40;;;10.30;99.90;;;;;;5102576;27;20039;-70
2023/10/26 00:12:35;;;;;;;19.77;13.40;;;10.30;99.90;;;;;;5102847;28;20366;-70
2023/10/26 00:15:01;;;;;;;15.70;14.02;;;10.20;99.90;;;;;;5105524;28;20035;-70
2023/10/26 00:17:27;;;;;;;15.52;13.80;;;10.30;99.90;;;;;;5101308;28;20067;-70
2023/10/26 00:19:53;;;;;;;16.05;13.68;;;10.30;99.90;;;;;;5101274;27;20040;-70
2023/10/26 00:22:19;;;;;;;20.20;14.13;;;10.20;99.90;;;;;;5102736;27;20065;-70
2023/10/26 00:24:45;;;;;;;22.20;14.73;;;10.20;99.90;;;;;;5098342;27;20069;-69
2023/10/26 00:27:10;;;;;;;17.35;13.18;;;10.30;99.90;;;;;;5119977;27;20039;-69
2023/10/26 00:29:36;;;;;;;17.48;14.02;;;10.30;99.90;;;;;;5102741;27;20035;-70
2023/10/26 00:32:04;;;;;;;16.70;13.80;;;10.20;99.90;;;;;;5100906;28;20118;-69
2023/10/26 00:34:29;;;;;;;17.98;13.90;;;10.20;99.90;;;;;;5101852;28;20047;-69
2023/10/26 00:36:55;;;;;;;17.00;12.93;;;10.20;99.90;;;;;;5101541;28;20027;-69
2023/10/26 00:39:21;;;;;;;16.50;14.10;;;10.20;99.90;;;;;;5103194;27;20058;-69
2023/10/26 00:41:50;;;;;;;13.90;12.48;;;10.20;99.90;;;;;;5102506;27;20039;-70
2023/10/26 00:44:15;;;;;;;14.98;13.07;;;10.20;99.90;;;;;;5103006;28;20080;-70
2023/10/26 00:46:41;;;;;;;16.20;14.00;;;10.20;99.90;;;;;;5105344;27;20126;-69
2023/10/26 00:49:07;;;;;;;20.92;14.05;;;10.20;99.90;;;;;;5099432;28;20374;-70
2023/10/26 00:51:34;;;;;;;16.30;13.45;;;10.20;99.90;;;;;;5084461;28;20105;-70
2023/10/26 00:54:00;;;;;;;16.40;13.65;;;10.20;99.90;;;;;;5100820;28;20039;-70
2023/10/26 00:56:27;;;;;;;16.02;13.05;;;10.20;99.90;;;;;;5104203;28;20044;-69
2023/10/26 00:58:55;;;;;;;19.02;14.25;;;10.10;99.90;;;;;;5099646;27;20064;-70
2023/10/26 01:01:21;;;;;;;15.15;12.50;;;10.30;99.90;;;;;;5102956;28;20046;-70
2023/10/26 01:03:47;;;;;;;17.90;14.27;;;10.20;99.90;;;;;;5098849;28;20047;-69
2023/10/26 01:06:13;;;;;;;17.58;14.70;;;10.50;99.90;;;;;;5103407;28;20134;-70
2023/10/26 01:08:39;;;;;;;14.52;13.02;;;10.10;99.90;;;;;;5097538;27;20126;-69
2023/10/26 01:11:05;;;;;;;15.77;13.73;;;10.10;99.90;;;;;;5104719;28;20512;-70
2023/10/26 01:13:33;;;;;;;15.20;13.43;;;10.10;99.90;;;;;;5099541;27;20116;-69
2023/10/26 01:15:59;;;;;;;15.07;13.55;;;10.20;99.90;;;;;;5135900;27;20051;-70
2023/10/26 01:18:25;;;;;;;17.83;14.27;;;10.20;99.90;;;;;;5132816;27;20058;-69
2023/10/26 01:20:50;;;;;;;16.33;14.57;;;10.10;99.90;;;;;;5101703;28;20031;-69
2023/10/26 01:23:16;;;;;;;15.73;13.93;;;10.10;99.90;;;;;;5106834;28;20098;-69
2023/10/26 01:25:52;;;;;;;16.52;14.75;;;10.10;99.90;;;;;;5101254;28;20047;-69
2023/10/26 01:28:18;;;;;;;15.98;14.35;;;10.10;99.90;;;;;;5097774;28;20047;-70
2023/10/26 01:30:43;;;;;;;18.40;14.35;;;10.10;99.90;;;;;;5119908;27;20044;-69
2023/10/26 01:33:09;;;;;;;17.65;14.15;;;10.10;99.90;;;;;;5132437;27;20039;-69
2023/10/26 01:35:38;;;;;;;20.83;14.35;;;10.10;99.90;;;;;;5103169;28;20142;-69
2023/10/26 01:38:04;;;;;;;17.38;14.90;;;10.10;99.90;;;;;;5103434;28;20040;-69
2023/10/26 01:40:29;;;;;;;17.30;14.93;;;10.10;99.90;;;;;;5099814;28;20047;-69
2023/10/26 01:42:55;;;;;;;17.95;15.10;;;10.10;99.90;;;;;;5099681;28;20039;-70
2023/10/26 01:45:21;;;;;;;18.27;14.13;;;10.10;99.90;;;;;;5085526;28;20052;-69
2023/10/26 01:47:47;;;;;;;19.00;15.32;;;10.10;99.90;;;;;;5102014;28;20394;-70
2023/10/26 01:50:12;;;;;;;18.70;14.60;;;10.10;99.90;;;;;;5104263;28;20044;-69
2023/10/26 01:52:38;;;;;;;21.48;15.23;;;10.10;99.90;;;;;;5136408;27;20027;-69
2023/10/26 01:55:04;;;;;;;17.35;15.55;;;10.10;99.90;;;;;;5105741;27;20047;-70
2023/10/26 01:57:29;;;;;;;19.33;15.65;;;10.10;99.90;;;;;;5103481;27;20043;-69
2023/10/26 01:59:55;;;;;;;18.40;16.08;;;10.00;99.90;;;;;;5103087;28;20124;-70
2023/10/26 02:02:21;;;;;;;17.92;16.00;;;10.10;99.90;;;;;;5133598;27;20397;-69
2023/10/26 02:04:47;;;;;;;21.75;15.38;;;10.10;99.90;;;;;;5105010;27;20051;-70
2023/10/26 02:07:13;;;;;;;16.70;14.95;;;10.00;99.90;;;;;;5107661;27;20128;-69
2023/10/26 02:09:39;;;;;;;20.45;15.05;;;10.10;99.90;;;;;;5106148;27;20051;-69
2023/10/26 02:12:05;;;;;;;23.67;16.27;;;10.00;99.90;;;;;;5103968;27;20040;-70
2023/10/26 02:14:30;;;;;;;23.42;16.40;;;10.00;99.90;;;;;;5105815;27;20070;-69
2023/10/26 02:16:56;;;;;;;20.25;16.15;;;10.10;99.90;;;;;;5107208;28;20032;-69
2023/10/26 02:19:21;;;;;;;20.75;15.85;;;10.00;99.90;;;;;;5104523;27;20482;-69
2023/10/26 02:21:47;;;;;;;20.80;16.75;;;10.00;99.90;;;;;;5104900;28;20114;-69
2023/10/26 02:24:13;;;;;;;21.48;15.90;;;10.10;99.90;;;;;;5105128;27;20051;-70
2023/10/26 02:26:38;;;;;;;17.70;15.13;;;10.00;99.90;;;;;;5104569;27;20398;-70
2023/10/26 02:29:04;;;;;;;20.02;15.20;;;10.00;99.90;;;;;;5130739;27;20038;-69
2023/10/26 02:31:29;;;;;;;21.45;16.73;;;10.00;99.90;;;;;;5105753;28;20501;-70
2023/10/26 02:33:55;;;;;;;18.25;15.25;;;10.00;99.90;;;;;;5105169;27;20078;-69
2023/10/26 02:36:22;;;;;;;20.25;16.70;;;10.00;99.90;;;;;;5107434;27;20043;-70
2023/10/26 02:38:47;;;;;;;17.33;15.20;;;10.00;99.90;;;;;;5107653;27;20057;-70
2023/10/26 02:41:13;;;;;;;22.50;15.95;;;10.00;99.90;;;;;;5103875;27;20031;-69
2023/10/26 02:43:39;;;;;;;23.27;16.27;;;10.00;99.90;;;;;;5106053;27;20092;-69
2023/10/26 02:46:05;;;;;;;19.23;16.67;;;10.00;99.90;;;;;;5107325;27;20397;-70
2023/10/26 02:48:31;;;;;;;21.42;16.95;;;10.00;99.90;;;;;;5102709;28;20126;-70
2023/10/26 02:50:56;;;;;;;20.27;15.95;;;10.00;99.90;;;;;;5106360;27;20031;-70
2023/10/26 02:53:22;;;;;;;23.70;17.73;;;10.00;99.90;;;;;;5136701;27;20039;-70
2023/10/26 02:55:48;;;;;;;19.42;17.42;;;10.00;99.90;;;;;;5134209;27;20115;-69
2023/10/26 02:58:13;;;;;;;24.25;17.60;;;10.00;99.90;;;;;;5102320;27;20248;-69
2023/10/26 03:00:39;;;;;;;19.50;17.40;;;10.00;99.90;;;;;;5104638;28;20074;-69
2023/10/26 03:03:05;;;;;;;21.33;17.40;;;10.00;99.90;;;;;;5102675;27;20047;-69
2023/10/26 03:05:33;;;;;;;21.15;17.10;;;9.90;99.90;;;;;;5102122;27;20390;-69
2023/10/26 03:07:59;;;;;;;19.90;17.30;;;10.00;99.90;;;;;;5100951;27;20048;-69
2023/10/26 03:10:26;;;;;;;22.63;17.17;;;9.90;99.90;;;;;;5107620;28;20757;-70
2023/10/26 03:12:52;;;;;;;19.50;17.50;;;10.00;99.90;;;;;;5109683;27;20051;-70
2023/10/26 03:15:18;;;;;;;23.73;17.85;;;10.00;99.90;;;;;;5098706;27;20039;-70
2023/10/26 03:17:44;;;;;;;23.27;19.17;;;9.90;99.90;;;;;;5135394;27;20092;-70
2023/10/26 03:20:10;;;;;;;20.17;18.08;;;9.90;99.90;;;;;;5105046;28;20177;-69
2023/10/26 03:22:36;;;;;;;23.98;20.05;;;9.90;99.90;;;;;;5134698;27;20130;-69
2023/10/26 03:25:02;;;;;;;21.50;18.63;;;9.90;99.90;;;;;;5101937;27;20599;-69
2023/10/26 03:27:28;;;;;;;24.45;18.50;;;9.90;99.90;;;;;;5103999;27;20043;-69
2023/10/26 03:29:54;;;;;;;24.67;19.65;;;9.90;99.90;;;;;;5104710;28;20044;-70
2023/10/26 03:32:20;;;;;;;27.13;19.00;;;9.90;99.90;;;;;;5103241;28;20040;-69
2023/10/26 03:34:48;;;;;;;22.52;19.42;;;9.90;99.90;;;;;;5100474;27;20058;-70
2023/10/26 03:37:14;;;;;;;28.48;19.50;;;9.90;99.90;;;;;;5102335;28;20048;-69
2023/10/26 03:39:40;;;;;;;27.83;20.80;;;9.90;99.90;;;;;;5102385;27;20488;-70
2023/10/26 03:42:05;;;;;;;28.23;20.02;;;9.90;99.90;;;;;;5102766;28;20193;-70
2023/10/26 03:44:31;;;;;;;24.60;20.38;;;9.90;99.90;;;;;;5102753;27;20058;-70
2023/10/26 03:46:57;;;;;;;24.25;20.80;;;9.90;99.90;;;;;;5133952;27;20482;-69
2023/10/26 03:49:22;;;;;;;32.20;23.15;;;9.90;99.90;;;;;;5104937;27;20031;-69
2023/10/26 03:51:48;;;;;;;29.58;21.58;;;9.90;99.90;;;;;;5102816;28;20126;-70
2023/10/26 03:54:14;;;;;;;28.67;23.17;;;9.90;99.90;;;;;;5101610;27;20040;-69
2023/10/26 03:56:40;;;;;;;30.30;22.42;;;9.80;99.90;;;;;;5101885;28;20047;-69
2023/10/26 03:59:05;;;;;;;30.50;22.88;;;9.80;99.90;;;;;;5100256;27;20042;-69
2023/10/26 04:01:31;;;;;;;28.42;23.55;;;9.80;99.90;;;;;;5101394;27;20051;-70
2023/10/26 04:03:56;;;;;;;29.63;23.02;;;9.90;99.90;;;;;;5133285;27;20092;-69
2023/10/26 04:06:23;;;;;;;26.35;23.13;;;9.80;99.90;;;;;;5134354;27;20341;-70
2023/10/26 04:08:48;;;;;;;28.10;23.10;;;9.90;99.90;;;;;;5102984;27;20035;-69
2023/10/26 04:11:17;;;;;;;27.75;23.23;;;9.80;99.90;;;;;;5132149;27;20508;-69
2023/10/26 04:13:44;;;;;;;30.10;22.20;;;9.90;99.90;;;;;;5098940;27;20096;-70
2023/10/26 04:16:09;;;;;;;29.05;22.38;;;9.80;99.90;;;;;;5103489;27;20031;-70
2023/10/26 04:18:35;;;;;;;30.00;23.65;;;9.90;99.90;;;;;;5103200;27;20036;-70
2023/10/26 04:21:01;;;;;;;30.75;23.92;;;9.80;99.90;;;;;;5101112;28;20035;-69
2023/10/26 04:23:27;;;;;;;26.55;22.77;;;9.80;99.90;;;;;;5101343;27;20039;-69
2023/10/26 04:25:53;;;;;;;32.85;24.05;;;9.80;99.90;;;;;;5103971;28;20066;-70
2023/10/26 04:28:19;;;;;;;31.48;23.63;;;9.90;99.90;;;;;;5107306;27;20052;-69
2023/10/26 04:30:48;;;;;;;26.35;23.42;;;9.80;99.90;;;;;;5132948;27;20046;-70
2023/10/26 04:33:14;;;;;;;26.77;22.75;;;9.80;99.90;;;;;;5102692;27;20043;-70
2023/10/26 04:35:44;;;;;;;28.60;25.13;;;9.90;99.90;;;;;;5104619;28;20040;-70
2023/10/26 04:38:10;;;;;;;28.08;22.27;;;9.90;99.90;;;;;;5104851;28;20397;-70
2023/10/26 04:40:38;;;;;;;28.38;25.08;;;9.90;99.90;;;;;;5100645;27;20040;-69
2023/10/26 04:43:03;;;;;;;27.70;23.55;;;10.20;99.90;;;;;;5135583;27;20051;-69
2023/10/26 04:45:29;;;;;;;28.38;25.15;;;9.80;99.90;;;;;;5103813;27;20036;-70
2023/10/26 04:47:55;;;;;;;29.55;24.10;;;9.80;99.90;;;;;;5102523;28;20044;-70
2023/10/26 04:50:21;;;;;;;32.85;23.98;;;9.80;99.90;;;;;;5102821;27;20039;-69
2023/10/26 04:52:47;;;;;;;30.85;23.20;;;9.80;99.90;;;;;;5101756;27;20047;-70
2023/10/26 04:55:13;;;;;;;31.10;26.20;;;9.80;99.90;;;;;;5100403;28;20062;-69
2023/10/26 04:57:39;;;;;;;28.13;22.75;;;9.80;99.90;;;;;;5100700;27;20035;-70
2023/10/26 05:00:09;;;;;;;29.20;22.15;;;9.70;99.90;;;;;;5100426;28;20073;-70
2023/10/26 05:02:38;;;;;;;26.85;23.55;;;9.80;99.90;;;;;;5101557;27;20423;-70
2023/10/26 05:05:04;;;;;;;29.42;23.67;;;9.70;99.90;;;;;;5098752;28;20054;-69
2023/10/26 05:07:30;;;;;;;30.55;23.92;;;9.70;99.90;;;;;;5100764;28;20042;-69
2023/10/26 05:09:57;;;;;;;30.95;24.02;;;9.70;99.90;;;;;;5101364;27;20402;-69
2023/10/26 05:12:23;;;;;;;30.77;24.25;;;9.70;99.90;;;;;;5103608;28;20118;-69
2023/10/26 05:14:48;;;;;;;27.05;23.33;;;9.80;99.90;;;;;;5103987;27;20035;-70
2023/10/26 05:17:14;;;;;;;28.10;23.90;;;9.60;99.90;;;;;;5135680;27;20050;-69
2023/10/26 05:19:40;;;;;;;26.75;23.00;;;9.60;99.90;;;;;;5099137;28;20040;-70
2023/10/26 05:22:06;;;;;;;31.33;25.08;;;9.60;99.90;;;;;;5102461;27;20740;-69
2023/10/26 05:24:32;;;;;;;25.33;22.60;;;9.60;99.90;;;;;;5100916;28;20447;-69
2023/10/26 05:26:58;;;;;;;25.30;22.60;;;9.50;99.90;;;;;;5100658;28;20043;-69
2023/10/26 05:29:23;;;;;;;29.58;23.60;;;9.50;99.90;;;;;;5101504;28;20042;-70
2023/10/26 05:31:49;;;;;;;32.47;22.52;;;9.40;99.90;;;;;;5104175;28;20493;-69
2023/10/26 05:34:15;;;;;;;26.23;23.23;;;9.30;99.90;;;;;;5106462;27;20031;-69
2023/10/26 05:36:40;;;;;;;27.63;23.13;;;9.30;99.90;;;;;;5102018;28;20057;-69
2023/10/26 05:39:06;;;;;;;26.65;22.42;;;9.30;99.90;;;;;;5103368;28;20035;-69
2023/10/26 05:41:33;;;;;;;35.85;25.83;;;9.30;99.90;;;;;;5105275;28;20055;-69
2023/10/26 05:43:59;;;;;;;26.90;23.40;;;9.20;99.90;;;;;;5100123;28;20047;-69
2023/10/26 05:46:25;;;;;;;28.23;24.58;;;9.00;99.90;;;;;;5102222;28;20040;-70
2023/10/26 05:48:51;;;;;;;26.48;22.58;;;9.20;99.90;;;;;;5103135;28;20044;-69
2023/10/26 05:51:16;;;;;;;26.42;22.27;;;9.20;99.90;;;;;;5102452;28;20062;-69
2023/10/26 05:53:42;;;;;;;26.80;22.30;;;9.20;99.90;;;;;;5105702;28;20355;-69
2023/10/26 05:56:08;;;;;;;29.45;22.13;;;9.20;99.90;;;;;;5087453;28;20043;-69
2023/10/26 05:58:34;;;;;;;26.60;22.35;;;9.20;99.90;;;;;;5129621;27;20123;-70
2023/10/26 06:01:00;;;;;;;33.20;23.55;;;9.20;99.90;;;;;;5101423;28;20726;-69
2023/10/26 06:03:26;;;;;;;26.00;23.23;;;9.20;99.90;;;;;;5100447;28;20061;-69
2023/10/26 06:06:00;;;;;;;25.55;22.90;;;9.10;99.90;;;;;;5100879;28;20059;-70
2023/10/26 06:08:26;;;;;;;26.55;22.90;;;9.10;99.90;;;;;;5099935;28;20655;-70
2023/10/26 06:10:52;;;;;;;24.73;21.63;;;9.20;99.90;;;;;;5114763;27;20058;-69
2023/10/26 06:13:18;;;;;;;24.98;22.30;;;9.20;99.90;;;;;;5099311;28;20108;-69
2023/10/26 06:15:44;;;;;;;23.85;21.27;;;9.20;99.90;;;;;;5100502;28;20071;-69
2023/10/26 06:18:12;;;;;;;27.65;22.10;;;9.20;99.90;;;;;;5101958;28;20036;-69
2023/10/26 06:20:38;;;;;;;29.00;21.73;;;9.20;99.90;;;;;;5100952;28;20680;-69
2023/10/26 06:23:04;;;;;;;26.33;22.50;;;9.20;99.90;;;;;;5101901;28;20067;-69
2023/10/26 06:25:37;;;;;;;32.42;23.48;;;9.20;99.90;;;;;;5100511;28;20078;-69
2023/10/26 06:28:03;;;;;;;45.65;23.90;;;9.20;99.90;;;;;;5101590;28;20428;-69
2023/10/26 06:30:29;;;;;;;48.95;22.67;;;9.20;99.90;;;;;;5098069;28;20036;-69
2023/10/26 06:32:54;;;;;;;47.78;23.48;;;9.30;99.90;;;;;;5099802;28;20042;-69
2023/10/26 06:35:20;;;;;;;49.63;22.27;;;9.30;99.90;;;;;;5101173;28;20028;-69
2023/10/26 06:37:46;;;;;;;49.30;22.52;;;9.20;99.90;;;;;;5104968;27;20027;-69
2023/10/26 06:40:12;;;;;;;48.22;22.38;;;9.30;99.90;;;;;;5135427;27;20040;-69
2023/10/26 06:42:37;;;;;;;166.30;25.42;;;9.20;99.90;;;;;;5102489;28;20047;-69
2023/10/26 06:45:03;;;;;;;41.08;21.27;;;9.30;99.90;;;;;;5104809;28;20641;-69
2023/10/26 06:47:29;;;;;;;38.53;21.60;;;9.30;99.90;;;;;;5106889;28;20032;-69
2023/10/26 06:49:55;;;;;;;73.22;21.15;;;9.30;99.90;;;;;;5105288;27;20076;-69
2023/10/26 06:52:21;;;;;;;57.53;19.75;;;9.30;99.90;;;;;;5135681;27;20455;-69
2023/10/26 06:54:50;;;;;;;64.47;21.20;;;9.30;99.90;;;;;;5104905;28;20040;-69
2023/10/26 06:57:16;;;;;;;52.33;21.27;;;9.30;99.90;;;;;;5106901;27;20450;-69
2023/10/26 06:59:42;;;;;;;38.92;21.73;;;9.40;99.90;;;;;;5089518;28;20050;-69
2023/10/26 07:02:08;;;;;;;81.50;22.63;;;9.40;99.90;;;;;;5134846;27;20110;-69
2023/10/26 07:04:35;;;;;;;67.80;22.75;;;9.40;99.90;;;;;;5138684;27;20047;-69
2023/10/26 07:07:01;;;;;;;92.60;21.88;;;9.40;99.90;;;;;;5107665;27;20089;-69
2023/10/26 07:09:27;;;;;;;68.97;23.40;;;9.50;99.90;;;;;;5137764;27;20039;-69
2023/10/26 07:11:53;;;;;;;51.75;23.58;;;9.40;99.90;;;;;;5105665;27;20502;-69
2023/10/26 07:14:19;;;;;;;62.55;23.45;;;9.50;99.90;;;;;;5104872;28;20043;-69
2023/10/26 07:16:44;;;;;;;104.78;24.85;;;9.50;99.90;;;;;;5103903;27;20047;-69
2023/10/26 07:19:10;;;;;;;61.92;24.25;;;9.50;99.90;;;;;;5102794;28;20075;-69
2023/10/26 07:21:36;;;;;;;82.40;24.17;;;9.50;99.90;;;;;;5105842;27;20044;-69
2023/10/26 07:24:02;;;;;;;161.85;28.85;;;9.60;99.90;;;;;;5104015;28;20043;-69
2023/10/26 07:26:28;;;;;;;74.93;25.35;;;9.60;99.90;;;;;;5105059;27;20086;-69
2023/10/26 07:28:56;;;;;;;66.22;24.90;;;10.20;99.90;;;;;;5099485;28;20533;-69
2023/10/26 07:31:22;;;;;;;108.65;26.58;;;9.70;99.90;;;;;;5097690;27;20039;-70
2023/10/26 07:33:48;;;;;;;111.13;26.85;;;9.70;99.90;;;;;;5103154;27;20080;-69
2023/10/26 07:36:15;;;;;;;57.83;25.20;;;9.70;99.90;;;;;;5104852;27;20035;-70
2023/10/26 07:38:41;;;;;;;68.40;25.45;;;9.70;99.90;;;;;;5103619;27;20433;-70
2023/10/26 07:41:07;;;;;;;63.03;25.85;;;9.70;99.90;;;;;;5101121;27;20032;-69
2023/10/26 07:43:34;;;;;;;72.18;27.15;;;9.80;99.90;;;;;;5104315;27;20050;-69
2023/10/26 07:46:00;;;;;;;90.75;26.92;;;9.70;99.90;;;;;;5133166;27;20039;-69
2023/10/26 07:48:26;;;;;;;90.93;28.20;;;9.80;99.90;;;;;;5105186;27;20503;-69
2023/10/26 07:50:51;;;;;;;79.07;28.63;;;9.80;99.90;;;;;;5100264;27;20048;-70
2023/10/26 07:53:17;;;;;;;62.47;27.67;;;9.80;99.90;;;;;;5103911;27;20059;-69
2023/10/26 07:55:46;;;;;;;77.25;28.50;;;9.80;99.90;;;;;;5102675;27;20043;-69
2023/10/26 07:58:12;;;;;;;176.10;33.72;;;9.90;99.90;;;;;;5102552;27;20507;-69
2023/10/26 08:00:37;;;;;;;120.97;33.08;;;9.90;99.90;;;;;;5102909;27;20091;-69
2023/10/26 08:03:03;;;;;;;82.60;29.95;;;9.80;99.90;;;;;;5103325;27;20040;-69
2023/10/26 08:05:29;;;;;;;77.30;30.98;;;9.90;99.90;;;;;;5105847;27;21005;-69
2023/10/26 08:07:55;;;;;;;61.20;31.63;;;10.00;99.90;;;;;;5135854;27;20546;-69
2023/10/26 08:10:21;;;;;;;72.85;32.15;;;10.00;99.90;;;;;;5097346;27;20036;-69
2023/10/26 08:12:51;;;;;;;75.13;31.77;;;10.00;99.90;;;;;;5098168;27;20067;-69
2023/10/26 08:15:17;;;;;;;58.58;30.05;;;10.00;99.90;;;;;;5099334;27;20130;-69
2023/10/26 08:17:43;;;;;;;61.67;31.73;;;10.00;99.90;;;;;;5096630;27;20039;-69
2023/10/26 08:20:08;;;;;;;62.65;34.00;;;10.00;99.90;;;;;;5097459;27;20137;-69
2023/10/26 08:22:35;;;;;;;47.15;31.17;;;10.10;99.90;;;;;;5100483;27;20101;-70
2023/10/26 08:25:01;;;;;;;49.45;33.75;;;10.10;99.90;;;;;;5102627;27;20516;-69
2023/10/26 08:27:26;;;;;;;51.55;32.90;;;10.10;99.90;;;;;;5101734;27;20035;-69
2023/10/26 08:29:52;;;;;;;49.53;32.17;;;10.20;99.90;;;;;;5080703;28;20036;-69
2023/10/26 08:32:17;;;;;;;50.47;33.28;;;10.10;99.90;;;;;;5101631;28;20362;-73
2023/10/26 08:34:47;;;;;;;54.92;33.75;;;10.30;99.90;;;;;;5103468;28;20447;-71
2023/10/26 08:37:13;;;;;;;47.63;32.67;;;10.30;99.90;;;;;;5100466;27;20100;-69
2023/10/26 08:39:39;;;;;;;47.10;31.70;;;10.30;99.90;;;;;;5134440;27;20044;-72
2023/10/26 08:42:05;;;;;;;40.30;29.83;;;10.40;99.90;;;;;;5101561;27;20035;-71
2023/10/26 08:44:31;;;;;;;41.55;30.75;;;10.50;99.90;;;;;;5103587;28;20088;-73
2023/10/26 08:47:03;;;;;;;45.80;31.30;;;10.60;99.90;;;;;;5104802;28;20040;-72
2023/10/26 08:49:30;;;;;;;43.40;31.13;;;10.50;99.90;;;;;;5131537;27;20075;-69
2023/10/26 08:51:56;;;;;;;38.47;29.38;;;10.60;99.90;;;;;;5132840;27;20087;-69
2023/10/26 08:54:22;;;;;;;39.65;28.38;;;10.60;99.90;;;;;;5133906;27;20051;-70
2023/10/26 08:56:48;;;;;;;34.35;28.48;;;10.70;99.90;;;;;;5134954;27;20040;-71
2023/10/26 08:59:14;;;;;;;32.83;26.38;;;10.90;99.90;;;;;;5097283;27;20059;-73
2023/10/26 09:01:45;;;;;;;30.17;24.90;;;10.70;99.90;;;;;;5099760;27;20051;-74
2023/10/26 09:04:12;;;;;;;31.58;27.65;;;10.70;99.90;;;;;;5100949;28;20043;-70
2023/10/26 09:06:45;;;;;;;31.55;25.60;;;10.70;99.90;;;;;;5098555;28;20035;-70
2023/10/26 09:09:11;;;;;;;30.75;25.65;;;10.70;99.90;;;;;;5097961;28;20055;-70
2023/10/26 09:11:37;;;;;;;31.88;27.23;;;10.70;99.90;;;;;;5100532;28;20039;-69
2023/10/26 09:14:21;;;;;;;30.38;26.52;;;10.80;99.90;;;;;;5097908;28;20147;-69
2023/10/26 09:16:48;;;;;;;30.15;25.08;;;10.70;99.90;;;;;;5129695;27;20505;-69
2023/10/26 09:19:15;;;;;;;32.30;25.92;;;10.80;99.90;;;;;;5098181;28;20096;-68
2023/10/26 09:21:52;;;;;;;29.67;25.73;;;10.80;99.90;;;;;;5099725;28;20071;-68
2023/10/26 09:24:20;;;;;;;32.58;25.45;;;10.80;99.90;;;;;;5099136;28;20501;-69
2023/10/26 09:26:46;;;;;;;28.90;24.08;;;10.80;99.90;;;;;;5098967;28;20039;-71
2023/10/26 09:29:12;;;;;;;25.83;23.02;;;10.90;99.90;;;;;;5131255;27;20040;-68
2023/10/26 09:31:54;;;;;;;28.13;23.63;;;10.90;99.90;;;;;;5098085;28;20063;-68
2023/10/26 09:34:24;;;;;;;27.50;23.02;;;10.90;99.90;;;;;;5099922;28;20040;-68
2023/10/26 09:37:03;;;;;;;26.75;23.15;;;11.00;99.90;;;;;;5104063;27;20078;-68
2023/10/26 09:39:32;;;;;;;25.77;22.88;;;11.00;99.90;;;;;;5098658;27;20047;-67
2023/10/26 09:41:59;;;;;;;28.10;22.55;;;11.00;99.90;;;;;;5100569;28;20144;-68
2023/10/26 09:44:25;;;;;;;23.42;21.02;;;11.00;99.90;;;;;;5104970;28;20062;-68
2023/10/26 09:46:51;;;;;;;23.63;21.17;;;11.20;99.90;;;;;;5100507;28;20056;-69
2023/10/26 09:49:17;;;;;;;26.08;21.48;;;11.10;99.90;;;;;;5103620;28;20052;-69
2023/10/26 09:51:44;;;;;;;21.88;19.55;;;11.10;99.90;;;;;;5098342;28;20077;-69
2023/10/26 09:54:10;;;;;;;23.63;21.10;;;11.10;99.90;;;;;;5102775;28;20036;-68
2023/10/26 09:56:41;;;;;;;21.80;19.60;;;11.30;99.90;;;;;;5104366;28;20405;-67
2023/10/26 09:59:07;;;;;;;23.02;20.50;;;11.20;99.90;;;;;;5100921;28;20078;-68
2023/10/26 10:01:35;;;;;;;22.38;20.08;;;11.20;99.90;;;;;;5103861;28;20134;-68
2023/10/26 10:04:02;;;;;;;21.73;18.92;;;11.40;99.90;;;;;;5101626;28;20509;-68
2023/10/26 10:06:54;;;;;;;21.55;19.38;;;11.40;99.90;;;;;;5106250;28;20036;-67
2023/10/26 10:09:27;;;;;;;20.52;18.48;;;11.40;99.90;;;;;;5101430;28;20024;-66
2023/10/26 10:12:05;;;;;;;18.67;16.70;;;11.50;99.90;;;;;;5135113;27;20118;-67
2023/10/26 10:14:54;;;;;;;17.52;15.82;;;11.60;99.90;;;;;;5138041;27;20044;-66
2023/10/26 10:17:22;;;;;;;19.10;15.82;;;11.60;99.90;;;;;;5104328;27;20048;-66
2023/10/26 10:20:13;;;;;;;18.25;16.45;;;11.80;99.90;;;;;;5107390;27;20088;-66
2023/10/26 10:22:45;;;;;;;18.85;16.88;;;11.80;99.90;;;;;;5107500;27;20043;-66
2023/10/26 10:25:12;;;;;;;18.80;16.90;;;12.20;99.90;;;;;;5123682;27;20074;-66
2023/10/26 10:28:01;;;;;;;18.95;17.15;;;12.00;99.90;;;;;;5138946;27;20054;-66
2023/10/26 10:30:45;;;;;;;18.13;16.33;;;12.30;99.90;;;;;;5104584;27;20092;-66
2023/10/26 10:33:19;;;;;;;16.98;15.35;;;12.10;99.90;;;;;;5104726;28;20027;-66
2023/10/26 10:36:01;;;;;;;17.63;15.90;;;12.20;99.90;;;;;;5102994;27;20043;-66
2023/10/26 10:38:31;;;;;;;17.98;16.15;;;12.20;99.90;;;;;;5101515;28;20105;-66
2023/10/26 10:41:01;;;;;;;17.15;15.52;;;12.30;99.90;;;;;;5098217;28;20036;-66
2023/10/26 10:43:35;;;;;;;17.05;14.98;;;12.30;99.90;;;;;;5104876;27;20048;-66
2023/10/26 10:46:26;;;;;;;15.95;14.45;;;12.20;99.90;;;;;;5135395;27;20040;-66
2023/10/26 10:49:05;;;;;;;16.27;14.57;;;12.10;99.90;;;;;;5101296;28;20119;-66
2023/10/26 10:51:42;;;;;;;16.98;15.27;;;12.00;99.90;;;;;;5101857;28;20039;-66
2023/10/26 10:54:11;;;;;;;17.13;15.43;;;11.90;99.90;;;;;;5104141;27;20032;-66
2023/10/26 10:56:41;;;;;;;16.98;15.23;;;11.90;99.90;;;;;;5137388;27;20490;-66
2023/10/26 10:59:23;;;;;;;16.60;14.90;;;11.90;99.90;;;;;;5101576;28;20040;-66
2023/10/26 11:01:50;;;;;;;17.13;15.50;;;11.80;99.90;;;;;;5134126;27;20074;-66
2023/10/26 11:04:17;;;;;;;16.20;14.70;;;11.80;99.90;;;;;;5135134;27;20039;-66
2023/10/26 11:06:49;;;;;;;17.60;15.75;;;11.80;99.90;;;;;;5115308;27;20419;-66
2023/10/26 11:09:21;;;;;;;17.52;15.63;;;11.80;99.90;;;;;;5103671;27;20051;-66
2023/10/26 11:11:47;;;;;;;16.63;15.02;;;11.80;99.90;;;;;;5131694;27;20039;-66
2023/10/26 11:14:12;;;;;;;17.10;15.25;;;11.80;99.90;;;;;;5101789;28;20042;-66
2023/10/26 11:16:41;;;;;;;18.63;15.90;;;11.80;99.90;;;;;;5089800;28;20058;-66
2023/10/26 11:19:07;;;;;;;19.30;16.25;;;11.80;99.90;;;;;;5100852;27;20118;-66
2023/10/26 11:21:33;;;;;;;16.27;14.60;;;11.80;99.90;;;;;;5105275;27;20484;-67
2023/10/26 11:23:59;;;;;;;15.50;13.98;;;11.90;99.90;;;;;;5105817;27;20047;-68
2023/10/26 11:26:25;;;;;;;16.40;14.70;;;12.00;99.90;;;;;;5104912;27;20216;-71
2023/10/26 11:28:51;;;;;;;15.77;14.18;;;12.00;99.90;;;;;;5102189;28;20107;-73
2023/10/26 11:31:39;;;;;;;14.32;12.95;;;12.00;99.90;;;;;;5105629;27;20049;-73
2023/10/26 11:34:08;;;;;;;13.85;12.38;;;12.30;99.90;;;;;;5104347;27;20058;-71
2023/10/26 11:36:35;;;;;;;13.65;12.25;;;12.40;99.90;;;;;;5105451;27;20038;-71
2023/10/26 11:39:02;;;;;;;13.35;12.07;;;12.50;99.90;;;;;;5102706;27;20115;-69
2023/10/26 11:41:33;;;;;;;13.98;12.63;;;12.60;99.90;;;;;;5106864;27;20055;-71
2023/10/26 11:43:58;;;;;;;13.68;12.38;;;12.70;99.90;;;;;;5101622;27;20145;-71
2023/10/26 11:46:32;;;;;;;12.55;11.35;;;12.80;99.90;;;;;;5102096;27;20122;-71
2023/10/26 11:48:58;;;;;;;12.55;11.45;;;12.90;99.90;;;;;;5098381;27;20590;-72
2023/10/26 11:51:24;;;;;;;11.98;10.88;;;12.90;99.90;;;;;;5100482;27;20438;-75
2023/10/26 11:53:50;;;;;;;12.65;11.35;;;13.00;99.90;;;;;;5104862;27;20118;-74
2023/10/26 11:56:15;;;;;;;15.93;12.48;;;12.90;99.90;;;;;;5108170;27;20028;-71
2023/10/26 11:58:42;;;;;;;13.75;12.45;;;12.80;99.90;;;;;;5102229;28;20028;-72
2023/10/26 12:01:08;;;;;;;14.73;13.23;;;13.10;99.90;;;;;;5106000;28;20050;-70
2023/10/26 12:03:35;;;;;;;15.80;14.30;;;13.30;99.90;;;;;;5133411;27;20408;-73
2023/10/26 12:06:01;;;;;;;14.38;12.98;;;13.20;99.90;;;;;;5103545;28;20039;-74
2023/10/26 12:08:27;;;;;;;13.75;12.45;;;13.30;99.90;;;;;;5088009;28;21137;-73
2023/10/26 12:10:52;;;;;;;13.27;11.82;;;13.20;99.90;;;;;;5133240;27;20126;-75
2023/10/26 12:13:18;;;;;;;15.55;13.52;;;13.20;99.90;;;;;;5103663;28;20032;-72
2023/10/26 12:15:44;;;;;;;13.75;12.45;;;13.40;99.90;;;;;;5105772;27;20036;-70
2023/10/26 12:18:09;;;;;;;14.70;12.40;;;13.20;99.90;;;;;;5101241;28;20040;-69
2023/10/26 12:20:35;;;;;;;13.43;12.23;;;13.20;99.90;;;;;;5099466;28;20379;-65
2023/10/26 12:23:01;;;;;;;12.60;11.45;;;13.30;99.90;;;;;;5104025;28;20156;-66
2023/10/26 12:25:27;;;;;;;13.10;11.70;;;13.40;99.90;;;;;;5131037;27;20046;-66
2023/10/26 12:27:52;;;;;;;13.73;12.43;;;13.50;99.90;;;;;;5102277;27;20123;-66
2023/10/26 12:30:18;;;;;;;14.85;13.35;;;13.90;99.90;;;;;;5106025;27;20048;-67